Time;durP1;ratioP1;P1;durP2;ratioP2;P2;SDS_P1;SDS_P2;PMS_P1;PMS_P2;Temp;Humidity;BMP_temperature;BMP_pressure;BME280_temperature;BME280_humidity;BME280_pressure;Samples;Min_cycle;Max_cycle;Signal;HPM_P1;HPM_P2
2022/12/16 00:01:09;;;;;;;32.93;20.17;;;;;;;;;;5045639;28;20189;-74
2022/12/16 00:03:35;;;;;;;32.70;18.03;;;;;;;;;;5045289;28;20186;-75
2022/12/16 00:06:02;;;;;;;33.07;19.50;;;;;;;;;;5044823;28;20182;-75
2022/12/16 00:08:27;;;;;;;32.70;19.67;;;;;;;;;;5044056;28;20199;-75
2022/12/16 00:10:55;;;;;;;32.27;20.23;;;;;;;;;;5043977;28;20210;-74
2022/12/16 00:13:21;;;;;;;33.60;19.93;;;;;;;;;;5043359;28;20174;-75
2022/12/16 00:15:46;;;;;;;29.33;18.47;;;;;;;;;;5044277;28;20186;-75
2022/12/16 00:18:12;;;;;;;27.33;16.70;;;;;;;;;;5043494;28;20218;-75
2022/12/16 00:20:42;;;;;;;32.27;18.67;;;;;;;;;;5042889;28;20214;-75
2022/12/16 00:23:07;;;;;;;30.17;19.13;;;;;;;;;;5045230;28;20229;-75
2022/12/16 00:25:32;;;;;;;29.40;17.23;;;;;;;;;;5043389;28;20175;-75
2022/12/16 00:27:57;;;;;;;29.50;19.40;;;;;;;;;;5044833;28;20189;-75
2022/12/16 00:30:23;;;;;;;27.67;18.63;;;;;;;;;;5057464;28;20269;-75
2022/12/16 00:32:48;;;;;;;30.83;18.60;;;;;;;;;;5045413;28;20183;-75
2022/12/16 00:35:13;;;;;;;28.70;18.53;;;;;;;;;;5023840;28;20691;-75
2022/12/16 00:37:38;;;;;;;29.83;18.97;;;;;;;;;;5006719;28;20187;-75
2022/12/16 00:40:04;;;;;;;28.47;17.17;;;;;;;;;;5007564;28;20238;-75
2022/12/16 00:42:29;;;;;;;30.30;20.13;;;;;;;;;;5007554;28;20189;-75
2022/12/16 00:44:54;;;;;;;29.90;17.43;;;;;;;;;;5008547;28;20183;-74
2022/12/16 00:47:19;;;;;;;28.40;18.17;;;;;;;;;;5009769;28;20182;-75
2022/12/16 00:49:46;;;;;;;30.40;18.60;;;;;;;;;;5008230;28;20176;-75
2022/12/16 00:52:11;;;;;;;27.83;17.47;;;;;;;;;;5006640;28;20182;-75
2022/12/16 00:54:36;;;;;;;31.93;19.80;;;;;;;;;;5007453;28;20221;-75
2022/12/16 00:57:01;;;;;;;27.60;17.07;;;;;;;;;;5024114;28;20186;-75
2022/12/16 00:59:26;;;;;;;26.70;17.07;;;;;;;;;;5002517;28;20202;-75
2022/12/16 01:01:52;;;;;;;30.00;18.97;;;;;;;;;;5024099;28;20187;-75
2022/12/16 01:04:17;;;;;;;30.10;15.27;;;;;;;;;;5006584;28;20188;-75
2022/12/16 01:06:42;;;;;;;28.93;17.73;;;;;;;;;;5024035;28;20240;-75
2022/12/16 01:09:07;;;;;;;22.00;13.77;;;;;;;;;;5005772;28;20221;-75
2022/12/16 01:11:32;;;;;;;31.30;18.17;;;;;;;;;;5005719;28;20179;-75
2022/12/16 01:13:58;;;;;;;29.53;19.87;;;;;;;;;;5007268;28;20210;-74
2022/12/16 01:16:23;;;;;;;26.83;17.23;;;;;;;;;;5004033;28;20215;-75
2022/12/16 01:18:48;;;;;;;20.70;13.33;;;;;;;;;;5005130;28;20203;-75
2022/12/16 01:21:14;;;;;;;29.17;17.77;;;;;;;;;;5024632;28;20238;-75
2022/12/16 01:23:39;;;;;;;28.10;19.33;;;;;;;;;;5006992;28;20176;-75
2022/12/16 01:26:05;;;;;;;30.60;17.63;;;;;;;;;;5006837;28;20189;-75
2022/12/16 01:28:30;;;;;;;27.13;16.10;;;;;;;;;;5022073;28;20223;-75
2022/12/16 01:30:56;;;;;;;28.23;14.60;;;;;;;;;;5007147;28;20470;-75
2022/12/16 01:33:22;;;;;;;26.07;15.30;;;;;;;;;;5023275;28;20227;-75
2022/12/16 01:35:47;;;;;;;28.10;16.60;;;;;;;;;;5006948;28;20202;-76
2022/12/16 01:38:12;;;;;;;26.10;17.43;;;;;;;;;;5003941;28;20184;-74
2022/12/16 01:40:38;;;;;;;31.67;18.27;;;;;;;;;;5023875;28;20218;-75
2022/12/16 01:43:10;;;;;;;30.37;18.07;;;;;;;;;;5020061;28;20207;-75
2022/12/16 01:45:35;;;;;;;25.90;15.53;;;;;;;;;;5024153;28;20176;-75
2022/12/16 01:48:03;;;;;;;24.13;16.20;;;;;;;;;;5007009;28;20192;-74
2022/12/16 01:50:29;;;;;;;26.50;16.77;;;;;;;;;;5003052;28;20183;-75
2022/12/16 01:52:56;;;;;;;27.90;16.10;;;;;;;;;;5006224;28;20189;-75
2022/12/16 01:55:25;;;;;;;26.43;15.47;;;;;;;;;;5006403;28;20190;-74
2022/12/16 01:57:55;;;;;;;27.67;16.33;;;;;;;;;;5004913;28;20257;-74
2022/12/16 02:00:20;;;;;;;23.73;14.97;;;;;;;;;;5004992;28;20257;-74
2022/12/16 02:02:46;;;;;;;26.10;15.27;;;;;;;;;;5004758;28;20186;-75
2022/12/16 02:05:21;;;;;;;22.00;13.90;;;;;;;;;;5003601;28;20178;-75
2022/12/16 02:07:51;;;;;;;22.50;14.93;;;;;;;;;;5022312;28;20171;-74
2022/12/16 02:10:16;;;;;;;26.63;14.90;;;;;;;;;;5021612;28;20201;-75
2022/12/16 02:12:49;;;;;;;24.33;14.53;;;;;;;;;;5008081;28;20183;-74
2022/12/16 02:15:14;;;;;;;27.53;17.03;;;;;;;;;;5026548;28;20283;-75
2022/12/16 02:17:46;;;;;;;17.97;10.40;;;;;;;;;;5007559;28;20260;-74
2022/12/16 02:20:11;;;;;;;13.57;8.17;;;;;;;;;;5002282;28;20210;-74
2022/12/16 02:22:39;;;;;;;21.85;12.60;;;;;;;;;;5020157;28;20175;-74
2022/12/16 02:25:07;;;;;;;21.13;13.67;;;;;;;;;;5002646;28;20182;-74
2022/12/16 02:27:51;;;;;;;23.03;15.27;;;;;;;;;;5004832;28;20302;-74
2022/12/16 02:30:23;;;;;;;27.83;15.07;;;;;;;;;;5003351;28;20184;-75
2022/12/16 02:32:54;;;;;;;26.63;15.67;;;;;;;;;;5004287;28;20191;-74
2022/12/16 02:35:26;;;;;;;20.13;11.97;;;;;;;;;;5005007;28;20191;-74
2022/12/16 02:38:05;;;;;;;23.00;13.23;;;;;;;;;;5023105;28;20242;-74
2022/12/16 02:40:30;;;;;;;27.83;15.27;;;;;;;;;;5004739;28;20260;-75
2022/12/16 02:42:59;;;;;;;19.07;10.87;;;;;;;;;;5002133;28;20184;-75
2022/12/16 02:45:27;;;;;;;24.90;15.17;;;;;;;;;;5020739;28;20179;-75
2022/12/16 02:47:52;;;;;;;21.93;12.00;;;;;;;;;;5023023;28;20232;-74
2022/12/16 02:50:21;;;;;;;23.63;14.20;;;;;;;;;;5004384;28;20178;-74
2022/12/16 02:52:46;;;;;;;27.40;15.27;;;;;;;;;;5006511;28;20179;-75
2022/12/16 02:55:12;;;;;;;23.07;16.20;;;;;;;;;;5003522;28;20286;-74
2022/12/16 02:58:03;;;;;;;21.17;13.00;;;;;;;;;;5004020;28;20206;-74
2022/12/16 03:00:33;;;;;;;20.27;13.17;;;;;;;;;;5000796;28;20218;-75
2022/12/16 03:03:00;;;;;;;19.37;13.17;;;;;;;;;;5022034;28;20175;-75
2022/12/16 03:05:28;;;;;;;26.10;16.70;;;;;;;;;;5022557;28;20191;-74
2022/12/16 03:07:55;;;;;;;17.93;9.67;;;;;;;;;;5019383;28;20186;-74
2022/12/16 03:10:24;;;;;;;21.30;12.97;;;;;;;;;;5004656;28;20174;-75
2022/12/16 03:12:50;;;;;;;25.60;14.67;;;;;;;;;;5004624;28;20194;-75
2022/12/16 03:15:17;;;;;;;20.20;13.37;;;;;;;;;;5019154;28;20179;-74
2022/12/16 03:17:44;;;;;;;23.10;14.47;;;;;;;;;;5006439;28;20206;-74
2022/12/16 03:20:11;;;;;;;20.23;13.07;;;;;;;;;;5021786;28;20209;-74
2022/12/16 03:22:38;;;;;;;22.07;13.50;;;;;;;;;;5008377;28;20182;-76
2022/12/16 03:25:04;;;;;;;20.87;12.13;;;;;;;;;;5008191;28;20182;-74
2022/12/16 03:27:33;;;;;;;21.50;15.07;;;;;;;;;;5006999;28;20171;-75
2022/12/16 03:30:05;;;;;;;22.63;14.03;;;;;;;;;;5025504;28;20288;-75
2022/12/16 03:32:36;;;;;;;19.00;12.87;;;;;;;;;;5007758;28;20183;-75
2022/12/16 03:35:08;;;;;;;21.60;14.53;;;;;;;;;;5043938;28;20403;-75
2022/12/16 03:37:36;;;;;;;22.23;10.40;;;;;;;;;;5030567;28;20182;-75
2022/12/16 03:40:04;;;;;;;17.80;11.83;;;;;;;;;;5029144;28;20210;-74
2022/12/16 03:42:30;;;;;;;21.80;13.93;;;;;;;;;;5027433;28;20555;-75
2022/12/16 03:44:55;;;;;;;19.47;13.83;;;;;;;;;;5028933;28;20193;-74
2022/12/16 03:47:21;;;;;;;16.07;9.37;;;;;;;;;;5028778;28;20182;-75
2022/12/16 03:49:46;;;;;;;15.23;10.07;;;;;;;;;;5046090;28;20276;-74
2022/12/16 03:52:11;;;;;;;23.40;13.60;;;;;;;;;;5028131;28;20222;-75
2022/12/16 03:54:36;;;;;;;18.93;11.63;;;;;;;;;;5026714;28;20274;-75
2022/12/16 03:57:02;;;;;;;20.03;14.00;;;;;;;;;;5027084;28;20198;-75
2022/12/16 03:59:27;;;;;;;22.83;14.90;;;;;;;;;;5044252;28;20349;-74
2022/12/16 04:01:53;;;;;;;17.33;11.03;;;;;;;;;;5026818;28;20235;-75
2022/12/16 04:04:18;;;;;;;17.40;11.43;;;;;;;;;;5045516;28;20212;-75
2022/12/16 04:06:43;;;;;;;17.90;11.33;;;;;;;;;;5044410;28;20189;-74
2022/12/16 04:09:08;;;;;;;14.97;11.07;;;;;;;;;;5026270;28;20268;-74
2022/12/16 04:25:19;;;;;;;20.07;12.33;;;;;;;;;;5044637;28;20216;-74
2022/12/16 04:27:45;;;;;;;22.77;12.93;;;;;;;;;;5026833;28;20205;-74
2022/12/16 04:30:20;;;;;;;22.40;13.97;;;;;;;;;;5026262;28;20193;-75
